Aérodrome :
LOGIN :

S'inscrire | Disclaimer

   EN    FR    IT 

 










Légende :    VFR   VFR Marginal   IFR   IFR Intensif   IFR Très Intensif
Visi : 
Plafond : 
>= 8 km
>= 3000ft
5 à 8 km
1000 à 3000 ft
1500m à 5 km
500 à 1000 ft
800 à 1500m
200 à 500 ft
< 800m
< 200 ft
Symboles :   Orages  Brouillard  Fortes neiges  Fortes précipitations  Vent > 20 kt
SIGMETs :   Divers  Orages  Givrage  Turbulence  Onde Orograph.  Cendres Volcan.







- Altitude de l'aérodrome : 3 ft
- Code IATA : DHR


EHKD - Den Helder De Kooy

DERNIER METAR :
  • 122225Z AUTO 19010KT 9999 OVC240 09/08 Q1014 BLU

METARs EXPIRÉS :
  • 122157Z AUTO 18012KT 9999 FEW018 OVC250 09/08 Q1014 BLU
  • 122155Z AUTO 18012KT 9999 SCT017 OVC240 10/09 Q1015 WHT
  • 122143Z AUTO 18011KT 9999 SCT017 OVC240 09/08 Q1015 WHT
  • 122132Z AUTO 18012KT 9999 SCT022 SCT026 OVC240 09/08 Q1015 WHT
  • 122125Z AUTO 18012KT 9999 FEW032 OVC240 10/08 Q1015 BLU
  • 122055Z AUTO 19011KT 9999 OVC240 10/09 Q1015 BLU
  • 122025Z AUTO 19012KT 9999 FEW017 OVC240 10/09 Q1014 BLU
  • 122016Z AUTO 19011KT 9999 FEW018 SCT025 BKN029 10/09 Q1014 BLU
  • 122007Z AUTO 19012KT 9999 SCT022 BKN026 OVC029 11/09 Q1014 WHT 20010KT 9999 FEW015 SCT020

TAF TAF EHKD
Valide du 12 à 18h jusqu'au 13 à 06h UTC


121736Z 1218/1306 20010KT 9999 FEW015
PROB30
TEMPO 1303/1306 19013G28KT 7000 -SHRA FEW012 SCT018CB BKN070
BECMG 1304/1306 19012G25KT BKN005
Pas de NOTAMs connus pour ce terrain.



MET'MAP, la Météo Aéronautique d'un coup d'oeil ! - Copyright ORBIFLY Décembre 2007 - Disclaimer

ORBIFLY MET'MAP TEAM :

Programmation & Développement : Alexandra Zaïnal
Conception & Développement : Baudouin d'Aumeries
Co-Programmation & Développement : Marc-Olivier Méhu
Soutien technique & logistique : Manuel Goepfert

Contact : metmap@orbifly.com




SOURCES & CREDITS :

   NOAA